createdAt,value
2023-03-22T00:00:51.585Z,57.60
2023-03-22T00:03:21.908Z,63.50
2023-03-22T00:05:49.884Z,61.60
2023-03-22T00:08:17.487Z,63.20
2023-03-22T00:10:47.761Z,60.20
2023-03-22T00:13:15.994Z,61.60
2023-03-22T00:15:45.696Z,64.50
2023-03-22T00:18:14.497Z,64.10
2023-03-22T00:20:53.283Z,65.50
2023-03-22T00:23:22.084Z,64.90
2023-03-22T00:25:50.047Z,64.00
2023-03-22T00:28:18.307Z,63.30
2023-03-22T00:30:57.780Z,63.70
2023-03-22T00:33:29.316Z,62.80
2023-03-22T00:36:11.351Z,64.80
2023-03-22T00:38:44.039Z,67.40
2023-03-22T00:41:17.724Z,67.80
2023-03-22T00:43:46.807Z,68.30
2023-03-22T00:46:16.484Z,65.50
2023-03-22T00:48:44.723Z,63.00
2023-03-22T00:51:13.268Z,62.00
2023-03-22T00:53:42.998Z,59.50
2023-03-22T00:56:15.987Z,59.30
2023-03-22T00:59:10.006Z,62.60
2023-03-22T01:01:38.542Z,61.50
2023-03-22T01:04:06.701Z,61.20
2023-03-22T01:06:35.433Z,62.90
2023-03-22T01:09:03.716Z,63.70
2023-03-22T01:11:31.415Z,63.60
2023-03-22T01:13:59.711Z,62.60
2023-03-22T01:16:27.533Z,61.20
2023-03-22T01:18:57.071Z,61.20
2023-03-22T01:21:25.175Z,62.60
2023-03-22T01:23:53.197Z,61.60
2023-03-22T01:26:20.884Z,64.20
2023-03-22T01:28:48.516Z,63.40
2023-03-22T01:31:16.253Z,63.60
2023-03-22T01:33:43.934Z,63.50
2023-03-22T01:36:11.782Z,63.50
2023-03-22T01:38:39.429Z,61.70
2023-03-22T01:41:07.334Z,62.20
2023-03-22T01:43:37.185Z,63.30
2023-03-22T01:46:05.206Z,62.80
2023-03-22T01:48:35.648Z,63.30
2023-03-22T01:51:14.374Z,63.60
2023-03-22T01:54:04.124Z,60.70
2023-03-22T01:56:36.009Z,60.80
2023-03-22T01:59:05.002Z,61.90
2023-03-22T02:01:47.065Z,60.30
2023-03-22T02:04:34.048Z,61.10
2023-03-22T02:07:10.392Z,60.60
2023-03-22T02:09:46.559Z,58.10
2023-03-22T02:12:29.473Z,59.60
2023-03-22T02:15:22.731Z,58.10
2023-03-22T02:18:32.213Z,55.30
2023-03-22T02:21:27.002Z,56.20
2023-03-22T02:24:04.265Z,54.10
2023-03-22T02:26:39.386Z,53.60
2023-03-22T02:29:21.954Z,53.70
2023-03-22T02:32:22.525Z,54.20
2023-03-22T02:35:23.663Z,50.80
2023-03-22T02:38:16.341Z,51.20
2023-03-22T02:41:16.160Z,49.50
2023-03-22T02:44:02.006Z,49.90
2023-03-22T02:46:42.522Z,49.50
2023-03-22T02:49:31.389Z,48.10
2023-03-22T02:52:02.615Z,47.80
2023-03-22T02:54:37.229Z,49.00
2023-03-22T02:57:10.071Z,47.80
2023-03-22T02:59:39.538Z,48.80
2023-03-22T03:02:09.828Z,46.50
2023-03-22T03:04:43.685Z,46.80
2023-03-22T03:07:14.338Z,48.10
2023-03-22T03:09:43.210Z,46.50
2023-03-22T03:12:18.761Z,46.10
2023-03-22T03:14:47.435Z,46.60
2023-03-22T03:17:50.879Z,45.80
2023-03-22T03:20:34.477Z,44.30
2023-03-22T03:23:24.473Z,44.00
2023-03-22T03:26:16.141Z,44.70
2023-03-22T03:29:26.184Z,44.50
2023-03-22T03:32:01.645Z,44.90
2023-03-22T03:34:42.099Z,44.20
2023-03-22T03:37:15.919Z,44.20
2023-03-22T03:39:53.310Z,43.70
2023-03-22T03:42:22.749Z,44.30
2023-03-22T03:44:50.693Z,45.70
2023-03-22T03:47:18.676Z,45.80
2023-03-22T03:49:46.452Z,45.10
2023-03-22T03:52:14.074Z,46.30
2023-03-22T03:54:42.773Z,45.40
2023-03-22T03:57:16.713Z,45.50
2023-03-22T03:59:44.396Z,46.40
2023-03-22T04:02:18.823Z,47.00
2023-03-22T04:04:46.888Z,46.70
2023-03-22T04:07:14.902Z,46.60
2023-03-22T04:09:42.538Z,45.20
2023-03-22T04:12:23.021Z,46.70
2023-03-22T04:15:12.167Z,46.30
2023-03-22T04:17:40.330Z,46.50
2023-03-22T04:20:11.006Z,44.70
2023-03-22T04:22:39.666Z,46.60
2023-03-22T04:25:12.791Z,46.50
2023-03-22T04:27:51.022Z,45.60
2023-03-22T04:30:20.161Z,46.00
2023-03-22T04:33:15.300Z,44.80
2023-03-22T04:36:05.569Z,45.70
2023-03-22T04:38:39.424Z,45.10
2023-03-22T04:41:07.466Z,46.10
2023-03-22T04:43:39.279Z,47.30
2023-03-22T04:46:12.636Z,46.10
2023-03-22T04:48:45.163Z,46.30
2023-03-22T04:51:12.822Z,45.20
2023-03-22T04:53:47.066Z,44.50
2023-03-22T04:56:15.585Z,42.90
2023-03-22T04:58:44.927Z,44.20
2023-03-22T05:01:16.094Z,42.50
2023-03-22T05:03:48.339Z,45.10
2023-03-22T05:06:18.163Z,43.30
2023-03-22T05:09:01.004Z,41.60
2023-03-22T05:11:28.782Z,41.20
2023-03-22T05:14:14.980Z,41.30
2023-03-22T05:16:42.953Z,42.30
2023-03-22T05:19:14.096Z,42.70
2023-03-22T05:21:45.349Z,41.90
2023-03-22T05:24:13.025Z,41.80
2023-03-22T05:26:42.398Z,41.80
2023-03-22T05:29:11.348Z,43.30
2023-03-22T05:31:59.262Z,41.90
2023-03-22T05:34:35.396Z,43.10
2023-03-22T05:37:08.961Z,42.10
2023-03-22T05:39:49.609Z,42.40
2023-03-22T05:42:18.032Z,43.30
2023-03-22T05:44:46.108Z,41.90
2023-03-22T05:47:14.963Z,43.20
2023-03-22T05:50:05.889Z,44.90
2023-03-22T05:52:35.043Z,44.30
2023-03-22T05:55:19.081Z,44.70
2023-03-22T05:57:47.513Z,45.40
2023-03-22T06:00:16.272Z,45.80
2023-03-22T06:03:03.269Z,45.30
2023-03-22T06:05:32.409Z,46.00
2023-03-22T06:08:00.905Z,45.90
2023-03-22T06:10:28.800Z,47.90
2023-03-22T06:12:56.717Z,47.00
2023-03-22T06:15:28.369Z,48.20
2023-03-22T06:18:02.185Z,45.90
2023-03-22T06:20:32.021Z,47.50
2023-03-22T06:23:02.962Z,47.60
2023-03-22T06:25:30.989Z,47.00
2023-03-22T06:27:58.712Z,47.80
2023-03-22T06:30:26.995Z,48.30
2023-03-22T06:33:29.865Z,48.10
2023-03-22T06:36:05.414Z,49.00
2023-03-22T06:38:49.816Z,48.20
2023-03-22T06:41:18.141Z,50.10
2023-03-22T06:43:46.192Z,49.50
2023-03-22T06:46:26.276Z,49.50
2023-03-22T06:49:01.353Z,51.10
2023-03-22T06:51:29.270Z,51.90
2023-03-22T06:53:57.590Z,49.90
2023-03-22T06:56:25.513Z,49.90
2023-03-22T06:58:54.709Z,50.40
2023-03-22T07:01:22.302Z,51.40
2023-03-22T07:03:50.147Z,49.30
2023-03-22T07:06:19.548Z,49.30
2023-03-22T07:08:50.891Z,48.60
2023-03-22T07:11:22.046Z,48.80
2023-03-22T07:13:54.726Z,46.60
2023-03-22T07:16:22.812Z,47.20
2023-03-22T07:18:57.135Z,49.40
2023-03-22T07:21:24.796Z,49.50
2023-03-22T07:23:56.778Z,50.30
2023-03-22T07:26:27.953Z,47.50
2023-03-22T07:28:57.241Z,47.00
2023-03-22T07:31:29.257Z,49.00
2023-03-22T07:34:00.762Z,48.60
2023-03-22T07:36:31.032Z,48.20
2023-03-22T07:38:58.938Z,46.60
2023-03-22T07:41:33.284Z,47.10
2023-03-22T07:44:20.874Z,46.80
2023-03-22T07:46:59.855Z,47.30
2023-03-22T07:49:33.756Z,45.90
2023-03-22T07:52:05.459Z,45.90
2023-03-22T07:54:34.605Z,46.20
2023-03-22T07:57:04.252Z,45.90
2023-03-22T07:59:33.280Z,45.20
2023-03-22T08:02:01.798Z,43.70
2023-03-22T08:04:36.691Z,43.90
2023-03-22T08:07:21.494Z,44.50
2023-03-22T08:09:49.652Z,44.20
2023-03-22T08:12:17.859Z,42.30
2023-03-22T08:14:50.468Z,44.60
2023-03-22T08:17:21.002Z,43.80
2023-03-22T08:19:49.937Z,42.00
2023-03-22T08:22:26.051Z,41.80
2023-03-22T08:25:33.535Z,42.00
2023-03-22T08:28:07.440Z,42.60
2023-03-22T08:30:35.458Z,43.50
2023-03-22T08:33:04.441Z,44.20
2023-03-22T08:35:34.005Z,44.10
2023-03-22T08:38:01.724Z,42.60
2023-03-22T08:40:36.645Z,46.00
2023-03-22T08:43:04.710Z,44.20
2023-03-22T08:45:32.397Z,43.50
2023-03-22T08:48:08.963Z,43.20
2023-03-22T08:50:51.652Z,44.30
2023-03-22T08:53:25.998Z,44.20
2023-03-22T08:56:04.466Z,43.30
2023-03-22T08:58:46.677Z,44.30
2023-03-22T09:01:31.705Z,43.30
2023-03-22T09:04:04.108Z,43.20
2023-03-22T09:06:32.210Z,42.20
2023-03-22T09:09:00.047Z,42.60
2023-03-22T09:11:28.248Z,39.90
2023-03-22T09:13:55.996Z,40.20
2023-03-22T09:16:24.561Z,40.70
2023-03-22T09:18:52.373Z,38.90
2023-03-22T09:21:21.950Z,39.10
2023-03-22T09:23:56.859Z,38.50
2023-03-22T09:26:31.531Z,39.60
2023-03-22T09:29:00.707Z,39.30
2023-03-22T09:31:28.841Z,39.00
2023-03-22T09:34:06.693Z,38.90
2023-03-22T09:36:34.411Z,38.50
2023-03-22T09:39:06.612Z,36.90
2023-03-22T09:41:41.521Z,36.00
2023-03-22T09:44:16.257Z,35.90
2023-03-22T09:46:48.426Z,34.60
2023-03-22T09:49:22.016Z,35.50
2023-03-22T09:51:54.235Z,35.30
2023-03-22T09:54:36.151Z,36.00
2023-03-22T09:57:19.422Z,36.00
2023-03-22T10:00:01.008Z,35.40
2023-03-22T10:02:41.739Z,35.10
2023-03-22T10:05:46.998Z,35.20
2023-03-22T10:08:23.642Z,35.40
2023-03-22T10:10:52.791Z,35.80
2023-03-22T10:13:29.573Z,37.20
2023-03-22T10:15:59.624Z,38.00
2023-03-22T10:18:33.592Z,38.00
2023-03-22T10:21:08.341Z,37.80
2023-03-22T10:23:56.383Z,37.20
2023-03-22T10:26:36.227Z,39.00
2023-03-22T10:29:37.681Z,38.10
2023-03-22T10:32:29.501Z,37.30
2023-03-22T10:34:57.820Z,38.50
2023-03-22T10:37:32.039Z,37.60
2023-03-22T10:40:07.711Z,37.80
2023-03-22T10:42:37.728Z,36.40
2023-03-22T10:45:25.000Z,35.00
2023-03-22T10:47:59.982Z,36.40
2023-03-22T10:50:33.859Z,36.60
2023-03-22T10:53:06.268Z,35.60
2023-03-22T10:55:41.263Z,33.60
2023-03-22T10:58:14.014Z,33.00
2023-03-22T11:00:49.374Z,33.00
2023-03-22T11:03:28.248Z,33.30
2023-03-22T11:06:38.410Z,32.10
2023-03-22T11:09:15.991Z,31.80
2023-03-22T11:11:56.026Z,38.90
2023-03-22T11:14:37.617Z,32.30
2023-03-22T11:17:19.217Z,29.00
2023-03-22T11:19:56.038Z,29.40
2023-03-22T11:22:33.316Z,27.90
2023-03-22T11:25:01.386Z,30.30
2023-03-22T11:27:33.079Z,29.40
2023-03-22T11:30:24.878Z,26.30
2023-03-22T11:33:17.794Z,23.30
2023-03-22T11:35:47.541Z,22.80
2023-03-22T11:38:30.245Z,22.80
2023-03-22T11:41:03.058Z,22.30
2023-03-22T11:43:48.113Z,21.20
2023-03-22T11:46:19.355Z,19.70
2023-03-22T11:48:50.004Z,21.20
2023-03-22T11:51:30.924Z,20.30
2023-03-22T11:54:08.909Z,21.90
2023-03-22T11:56:41.965Z,19.70
2023-03-22T11:59:14.915Z,21.60
2023-03-22T12:01:47.355Z,20.10
2023-03-22T12:04:20.147Z,20.80
2023-03-22T12:06:48.575Z,19.60
2023-03-22T12:09:35.728Z,21.40
2023-03-22T12:12:05.162Z,19.90
2023-03-22T12:14:41.099Z,19.20
2023-03-22T12:17:26.320Z,18.80
2023-03-22T12:20:30.566Z,19.30
2023-03-22T12:22:58.351Z,18.80
2023-03-22T12:25:34.055Z,19.70
2023-03-22T12:28:16.288Z,20.10
2023-03-22T12:30:47.377Z,19.50
2023-03-22T12:33:30.968Z,19.40
2023-03-22T12:36:02.256Z,17.60
2023-03-22T12:38:38.432Z,17.90
2023-03-22T12:41:09.809Z,18.30
2023-03-22T12:43:57.836Z,18.20
2023-03-22T12:46:29.804Z,19.30
2023-03-22T12:49:09.310Z,18.10
2023-03-22T12:51:37.004Z,19.20
2023-03-22T12:54:05.508Z,21.80
2023-03-22T12:56:38.774Z,22.00
2023-03-22T12:59:22.120Z,21.30
2023-03-22T13:01:57.289Z,22.10
2023-03-22T13:04:32.585Z,23.40
2023-03-22T13:07:13.799Z,22.10
2023-03-22T13:09:48.966Z,21.50
2023-03-22T13:12:16.716Z,21.90
2023-03-22T13:14:50.818Z,21.90
2023-03-22T13:17:24.853Z,21.60
2023-03-22T13:20:00.228Z,21.30
2023-03-22T13:22:43.212Z,20.40
2023-03-22T13:25:12.888Z,20.40
2023-03-22T13:27:52.633Z,20.50
2023-03-22T13:30:20.200Z,20.00
2023-03-22T13:32:56.309Z,21.30
2023-03-22T13:35:28.284Z,20.40
2023-03-22T13:38:03.007Z,20.90
2023-03-22T13:40:37.418Z,21.30
2023-03-22T13:43:10.869Z,23.30
2023-03-22T13:46:09.062Z,21.80
2023-03-22T13:48:50.728Z,20.10
2023-03-22T13:51:25.587Z,20.80
2023-03-22T13:54:09.298Z,21.00
2023-03-22T13:57:01.021Z,20.50
2023-03-22T13:59:33.811Z,21.20
2023-03-22T14:02:35.957Z,21.90
2023-03-22T14:05:16.581Z,21.90
2023-03-22T14:07:50.826Z,20.90
2023-03-22T14:10:22.946Z,20.70
2023-03-22T14:13:01.214Z,21.60
2023-03-22T14:15:36.247Z,22.40
2023-03-22T14:18:15.440Z,21.90
2023-03-22T14:20:43.938Z,23.70
